createdAt,value
2022-12-03T00:00:56.758Z,986.4
2022-12-03T00:02:57.996Z,986.3
2022-12-03T00:04:59.527Z,986.4
2022-12-03T00:07:01.448Z,986.5
2022-12-03T00:09:03.330Z,986.4
2022-12-03T00:11:05.028Z,986.4
2022-12-03T00:13:06.496Z,986.4
2022-12-03T00:15:07.907Z,986.4
2022-12-03T00:17:09.518Z,986.4
2022-12-03T00:19:10.559Z,986.3
2022-12-03T00:21:11.723Z,986.4
2022-12-03T00:23:13.171Z,986.4
2022-12-03T00:25:14.785Z,986.4
2022-12-03T00:27:16.455Z,986.4
2022-12-03T00:31:19.588Z,986.4
2022-12-03T00:33:20.895Z,986.4
2022-12-03T00:35:22.594Z,986.5
2022-12-03T00:37:23.813Z,986.5
2022-12-03T00:39:24.939Z,986.5
2022-12-03T00:41:26.911Z,986.4
2022-12-03T00:43:28.870Z,986.4
2022-12-03T00:45:30.419Z,986.4
2022-12-03T00:47:31.895Z,986.4
2022-12-03T00:49:33.286Z,986.4
2022-12-03T00:51:34.792Z,986.4
2022-12-03T00:53:36.157Z,986.4
2022-12-03T00:55:38.127Z,986.5
2022-12-03T00:57:39.892Z,986.5
2022-12-03T00:59:41.096Z,986.4
2022-12-03T01:03:44.037Z,986.4
2022-12-03T01:05:45.205Z,986.4
2022-12-03T01:07:46.933Z,986.3
2022-12-03T01:09:48.349Z,986.3
2022-12-03T01:11:50.255Z,986.4
2022-12-03T01:13:52.214Z,986.3
2022-12-03T01:15:53.628Z,986.3
2022-12-03T01:17:55.040Z,986.3
2022-12-03T01:19:56.751Z,986.3
2022-12-03T01:21:58.213Z,986.4
2022-12-03T01:24:00.168Z,986.4
2022-12-03T01:26:01.677Z,986.3
2022-12-03T01:28:46.854Z,986.4
2022-12-03T01:30:48.790Z,986.3
2022-12-03T01:32:50.254Z,986.4
2022-12-03T01:34:51.585Z,986.4
2022-12-03T01:36:53.168Z,986.3
2022-12-03T01:38:54.651Z,986.4
2022-12-03T01:40:56.277Z,986.5
2022-12-03T01:42:58.120Z,986.4
2022-12-03T01:44:59.176Z,986.4
2022-12-03T01:47:00.715Z,986.3
2022-12-03T01:49:02.070Z,986.5
2022-12-03T01:51:03.530Z,986.4
2022-12-03T01:53:05.253Z,986.5
2022-12-03T01:55:06.950Z,986.4
2022-12-03T01:57:08.697Z,986.4
2022-12-03T01:59:10.198Z,986.4
2022-12-03T02:01:12.184Z,986.5
2022-12-03T02:03:13.315Z,986.4
2022-12-03T02:07:16.923Z,986.5
2022-12-03T02:09:18.166Z,986.5
2022-12-03T02:11:19.347Z,986.6
2022-12-03T02:13:21.091Z,986.5
2022-12-03T02:15:22.101Z,986.5
2022-12-03T02:17:23.814Z,986.5
2022-12-03T02:19:25.456Z,986.5
2022-12-03T02:21:27.095Z,986.4
2022-12-03T02:23:28.915Z,986.4
2022-12-03T02:25:30.781Z,986.5
2022-12-03T02:27:31.984Z,986.4
2022-12-03T02:29:33.927Z,986.4
2022-12-03T02:31:35.819Z,986.4
2022-12-03T02:33:37.487Z,986.4
2022-12-03T02:35:38.679Z,986.4
2022-12-03T02:37:40.366Z,986.4
2022-12-03T02:39:42.358Z,986.4
2022-12-03T02:41:43.550Z,986.4
2022-12-03T02:43:44.654Z,986.4
2022-12-03T02:45:45.885Z,986.5
2022-12-03T02:49:48.851Z,986.5
2022-12-03T02:51:50.088Z,986.4
2022-12-03T02:53:51.849Z,986.5
2022-12-03T02:55:53.574Z,986.5
2022-12-03T02:57:54.971Z,986.5
2022-12-03T02:59:56.334Z,986.4
2022-12-03T03:01:57.726Z,986.4
2022-12-03T03:06:00.489Z,986.5
2022-12-03T03:08:01.887Z,986.3
2022-12-03T03:10:02.836Z,986.4
2022-12-03T03:12:04.568Z,986.4
2022-12-03T03:14:06.005Z,986.3
2022-12-03T03:16:07.880Z,986.4
2022-12-03T03:18:09.609Z,986.4
2022-12-03T03:20:11.520Z,986.4
2022-12-03T03:22:12.976Z,986.3
2022-12-03T03:24:14.640Z,986.4
2022-12-03T03:26:16.233Z,986.4
2022-12-03T03:28:18.172Z,986.3
2022-12-03T03:30:19.475Z,986.3
2022-12-03T03:32:20.812Z,986.4
2022-12-03T03:34:22.490Z,986.4
2022-12-03T03:36:24.154Z,986.4
2022-12-03T03:38:25.954Z,986.4
2022-12-03T03:40:27.881Z,986.4
2022-12-03T03:42:29.518Z,986.4
2022-12-03T03:44:30.886Z,986.3
2022-12-03T03:48:33.905Z,986.3
2022-12-03T03:50:35.101Z,986.4
2022-12-03T03:52:36.592Z,986.3
2022-12-03T03:54:37.948Z,986.3
2022-12-03T03:56:39.967Z,986.2
2022-12-03T03:58:41.954Z,986.3
2022-12-03T04:00:43.583Z,986.2
2022-12-03T04:02:45.237Z,986.2
2022-12-03T04:04:46.849Z,986.3
2022-12-03T04:06:48.645Z,986.3
2022-12-03T04:08:50.443Z,986.3
2022-12-03T04:10:52.113Z,986.3
2022-12-03T04:12:54.116Z,986.2
2022-12-03T04:14:55.754Z,986.2
2022-12-03T04:16:56.639Z,986.2
2022-12-03T04:18:58.328Z,986.2
2022-12-03T04:20:59.991Z,986.3
2022-12-03T04:23:01.398Z,986.3
2022-12-03T04:25:03.082Z,986.1
2022-12-03T04:27:04.577Z,986.2
2022-12-03T04:31:07.214Z,986.1
2022-12-03T04:33:08.763Z,986.1
2022-12-03T04:35:10.806Z,986.2
2022-12-03T04:37:12.584Z,986.1
2022-12-03T04:39:13.948Z,986.1
2022-12-03T04:41:15.786Z,986.1
2022-12-03T04:43:17.132Z,986.1
2022-12-03T04:45:19.108Z,986.1
2022-12-03T04:47:20.674Z,986.1
2022-12-03T04:49:22.655Z,986.1
2022-12-03T04:51:23.817Z,986.1
2022-12-03T04:53:25.732Z,986.1
2022-12-03T04:55:27.050Z,986
2022-12-03T04:57:28.065Z,986
2022-12-03T04:59:29.422Z,986
2022-12-03T05:01:31.350Z,986.1
2022-12-03T05:03:33.117Z,986
2022-12-03T05:05:34.691Z,986.1
2022-12-03T05:07:36.310Z,986.1
2022-12-03T05:09:38.050Z,986.1
2022-12-03T05:13:42.573Z,986
2022-12-03T05:15:42.851Z,986
2022-12-03T05:17:43.893Z,986
2022-12-03T05:19:44.932Z,986
2022-12-03T05:21:46.260Z,986.1
2022-12-03T05:23:48.029Z,986.1
2022-12-03T05:25:49.403Z,986.1
2022-12-03T05:27:50.814Z,986.1
2022-12-03T05:29:52.811Z,986
2022-12-03T05:31:54.669Z,986
2022-12-03T05:33:56.093Z,986
2022-12-03T05:35:58.114Z,986
2022-12-03T05:37:59.209Z,986
2022-12-03T05:40:00.801Z,986
2022-12-03T05:42:02.750Z,985.9
2022-12-03T05:44:04.797Z,985.9
2022-12-03T05:46:06.817Z,985.9
2022-12-03T05:48:07.880Z,986
2022-12-03T05:50:08.966Z,986
2022-12-03T05:52:10.796Z,986
2022-12-03T05:54:12.016Z,986
2022-12-03T05:56:13.482Z,986
2022-12-03T05:58:15.070Z,985.9
2022-12-03T06:00:16.356Z,986
2022-12-03T06:02:17.757Z,986
2022-12-03T06:04:19.299Z,986
2022-12-03T06:06:21.023Z,986
2022-12-03T06:08:22.985Z,985.8
2022-12-03T06:10:24.813Z,985.9
2022-12-03T06:12:26.668Z,985.9
2022-12-03T06:14:27.781Z,986
2022-12-03T06:16:29.161Z,985.8
2022-12-03T06:18:30.675Z,985.9
2022-12-03T06:22:34.213Z,985.9
2022-12-03T06:24:35.322Z,986
2022-12-03T06:26:37.283Z,985.9
2022-12-03T06:28:39.001Z,985.9
2022-12-03T06:32:41.630Z,985.9
2022-12-03T06:34:43.544Z,986
2022-12-03T06:36:44.930Z,986
2022-12-03T06:38:46.837Z,986
2022-12-03T06:40:48.467Z,986
2022-12-03T06:42:50.539Z,985.9
2022-12-03T06:44:51.948Z,986.1
2022-12-03T06:46:52.928Z,986
2022-12-03T06:48:54.245Z,986
2022-12-03T06:50:55.881Z,986.1
2022-12-03T06:52:57.334Z,986
2022-12-03T06:54:58.917Z,985.9
2022-12-03T06:57:00.861Z,986
2022-12-03T06:59:01.934Z,986.1
2022-12-03T07:01:03.529Z,986
2022-12-03T07:03:05.350Z,986
2022-12-03T07:05:06.456Z,986
2022-12-03T07:07:07.798Z,986
2022-12-03T07:09:09.406Z,986.1
2022-12-03T07:11:10.706Z,986
2022-12-03T07:13:12.018Z,986.1
2022-12-03T07:15:13.036Z,986
2022-12-03T07:17:14.648Z,986.1
2022-12-03T07:21:17.163Z,986.2
2022-12-03T07:23:19.144Z,986.1
2022-12-03T07:25:23.292Z,986.2
2022-12-03T07:27:22.225Z,986.2
2022-12-03T07:29:23.302Z,986.2
2022-12-03T07:31:24.642Z,986.3
2022-12-03T07:33:25.583Z,986.2
2022-12-03T07:35:27.085Z,986.2
2022-12-03T07:37:29.030Z,986.2
2022-12-03T07:39:30.514Z,986.1
2022-12-03T07:41:32.455Z,986.2
2022-12-03T07:43:33.527Z,986.2
2022-12-03T07:45:35.015Z,986.2
2022-12-03T07:47:36.496Z,986.2
2022-12-03T07:49:38.185Z,986.2
2022-12-03T07:51:39.735Z,986.2
2022-12-03T07:53:40.934Z,986.2
2022-12-03T07:55:42.752Z,986.2
2022-12-03T07:57:43.879Z,986.2
2022-12-03T07:59:45.485Z,986.2
2022-12-03T08:01:47.045Z,986.2
2022-12-03T08:03:48.579Z,986.2
2022-12-03T08:05:50.475Z,986.2
2022-12-03T08:07:51.977Z,986.2
2022-12-03T08:09:53.254Z,986.2
2022-12-03T08:14:40.426Z,986.1
2022-12-03T08:16:41.768Z,986.1
2022-12-03T08:18:43.471Z,986.1
2022-12-03T08:20:45.269Z,986.1
2022-12-03T08:22:46.570Z,986
2022-12-03T08:24:48.288Z,986.1
2022-12-03T08:26:50.134Z,985.9
2022-12-03T08:28:51.812Z,986
2022-12-03T08:30:53.308Z,986
2022-12-03T08:32:54.347Z,986
2022-12-03T08:34:56.325Z,986
2022-12-03T08:36:57.629Z,985.9
2022-12-03T08:38:59.592Z,985.9
2022-12-03T08:41:01.341Z,985.8
2022-12-03T08:43:03.116Z,985.8
2022-12-03T08:45:04.666Z,985.9
2022-12-03T08:47:05.984Z,985.8
2022-12-03T08:49:07.636Z,986
2022-12-03T08:51:08.721Z,986
2022-12-03T08:53:10.335Z,986.1
2022-12-03T08:57:13.768Z,986
2022-12-03T08:59:15.434Z,986.1
2022-12-03T09:01:16.876Z,986.1
2022-12-03T09:03:18.711Z,986.1
2022-12-03T09:05:20.360Z,986
2022-12-03T09:07:21.990Z,986.1
2022-12-03T09:09:23.704Z,986.1
2022-12-03T09:11:24.804Z,986.1
2022-12-03T09:13:26.445Z,986
2022-12-03T09:15:27.816Z,986.1
2022-12-03T09:17:29.122Z,986
2022-12-03T09:19:30.784Z,986.1
2022-12-03T09:21:32.502Z,986.1
2022-12-03T09:23:33.876Z,986.1
2022-12-03T09:25:35.134Z,986.1
2022-12-03T09:27:36.722Z,986.2
2022-12-03T09:29:38.640Z,986.1
2022-12-03T09:31:40.256Z,986.2
2022-12-03T09:33:41.995Z,986.2
2022-12-03T09:35:43.559Z,986.2
2022-12-03T09:37:45.028Z,986.2
2022-12-03T09:39:46.165Z,986.1
2022-12-03T09:41:47.464Z,986.1
2022-12-03T09:44:03.710Z,986.1
2022-12-03T09:45:51.170Z,986.1
2022-12-03T09:47:52.307Z,986.1
2022-12-03T09:49:53.580Z,986
2022-12-03T09:51:54.947Z,986
2022-12-03T09:53:56.685Z,985.9
2022-12-03T09:55:58.616Z,985.9
2022-12-03T09:57:59.650Z,985.9
2022-12-03T10:00:01.646Z,985.9
2022-12-03T10:02:03.072Z,985.8
2022-12-03T10:06:05.818Z,985.8
2022-12-03T10:08:07.134Z,985.8
2022-12-03T10:10:08.882Z,985.7
2022-12-03T10:12:10.551Z,985.7
2022-12-03T10:16:13.500Z,985.7
2022-12-03T10:18:14.663Z,985.7
2022-12-03T10:20:15.823Z,985.7
2022-12-03T10:22:17.529Z,985.6
2022-12-03T10:24:19.352Z,985.6
2022-12-03T10:26:20.650Z,985.6
2022-12-03T10:28:22.350Z,985.5
2022-12-03T10:30:23.690Z,985.5
2022-12-03T10:32:25.590Z,985.4
2022-12-03T10:34:27.020Z,985.4
2022-12-03T10:36:28.182Z,985.4
2022-12-03T10:38:29.378Z,985.2
2022-12-03T10:40:30.463Z,985.3
2022-12-03T10:42:32.133Z,985.2
2022-12-03T10:44:34.008Z,985.3
2022-12-03T10:46:35.993Z,985.2
2022-12-03T10:48:37.575Z,985.2
2022-12-03T10:50:38.631Z,985.2
2022-12-03T10:54:41.177Z,985.2
2022-12-03T10:56:42.547Z,985.1
2022-12-03T10:58:44.115Z,985
2022-12-03T11:00:45.400Z,985.1
2022-12-03T11:02:50.511Z,985
2022-12-03T11:04:48.792Z,985
2022-12-03T11:06:50.021Z,985
2022-12-03T11:08:57.029Z,985
2022-12-03T11:10:52.974Z,985
2022-12-03T11:12:54.232Z,985
2022-12-03T11:14:55.495Z,985
2022-12-03T11:16:56.225Z,985
2022-12-03T11:18:58.086Z,985.1
2022-12-03T11:20:59.438Z,985
2022-12-03T11:23:00.552Z,985
2022-12-03T11:25:02.551Z,985
2022-12-03T11:27:03.682Z,985
2022-12-03T11:29:04.806Z,985
2022-12-03T11:31:06.566Z,985
2022-12-03T11:33:08.083Z,985
2022-12-03T11:37:11.033Z,985
2022-12-03T11:39:12.444Z,984.9
2022-12-03T11:41:13.898Z,984.9
2022-12-03T11:43:15.384Z,985
2022-12-03T11:45:16.505Z,984.9
2022-12-03T11:47:18.032Z,984.9
2022-12-03T11:49:19.177Z,984.9
2022-12-03T11:51:20.626Z,984.8
2022-12-03T11:53:22.199Z,984.9
2022-12-03T11:55:23.317Z,984.8
2022-12-03T11:57:25.232Z,984.7
2022-12-03T11:59:26.952Z,984.7
2022-12-03T12:01:28.504Z,984.8
2022-12-03T12:03:30.162Z,984.8
2022-12-03T12:05:31.336Z,984.7
2022-12-03T12:07:33.101Z,984.7
2022-12-03T12:09:34.281Z,984.7
2022-12-03T12:11:35.973Z,984.7
2022-12-03T12:13:37.480Z,984.6
2022-12-03T12:15:38.616Z,984.7
2022-12-03T12:19:41.227Z,984.7
2022-12-03T12:21:51.182Z,984.7
2022-12-03T12:23:44.505Z,984.7
2022-12-03T12:25:49.511Z,984.6
2022-12-03T12:27:47.875Z,984.6
2022-12-03T12:29:48.930Z,984.6
2022-12-03T12:31:53.839Z,984.6
2022-12-03T12:33:51.387Z,984.6
2022-12-03T12:35:52.743Z,984.7
2022-12-03T12:37:58.874Z,984.6
2022-12-03T12:39:55.983Z,984.7
2022-12-03T12:41:57.585Z,984.6
2022-12-03T12:43:59.338Z,984.7
2022-12-03T12:46:13.776Z,984.6
2022-12-03T12:48:02.878Z,984.6
2022-12-03T12:50:04.075Z,984.6
2022-12-03T12:52:05.314Z,984.5
2022-12-03T12:54:06.822Z,984.5
2022-12-03T12:56:08.178Z,984.4
2022-12-03T12:58:09.854Z,984.5
2022-12-03T13:00:11.727Z,984.5
2022-12-03T13:02:13.828Z,984.4
2022-12-03T13:04:15.501Z,984.3
2022-12-03T13:06:16.947Z,984.4
2022-12-03T13:08:18.325Z,984.3
2022-12-03T13:10:19.467Z,984.4
2022-12-03T13:12:20.844Z,984.3
2022-12-03T13:14:22.217Z,984.4
2022-12-03T13:18:25.142Z,984.3
2022-12-03T13:20:26.649Z,984.4
2022-12-03T13:22:28.106Z,984.3
2022-12-03T13:24:29.947Z,984.3
2022-12-03T13:26:38.000Z,984.3
2022-12-03T13:28:33.360Z,984.3
2022-12-03T13:30:34.637Z,984.2
2022-12-03T13:32:36.120Z,984.2
2022-12-03T13:34:37.304Z,984.2
2022-12-03T13:36:38.591Z,984.2
2022-12-03T13:38:40.022Z,984
2022-12-03T13:40:41.643Z,983.9
2022-12-03T13:42:42.666Z,984.1
2022-12-03T13:44:43.780Z,984.1
2022-12-03T13:46:44.933Z,984.1
2022-12-03T13:48:46.743Z,984.2
2022-12-03T13:50:48.351Z,984
2022-12-03T13:52:49.567Z,984.2
2022-12-03T13:54:51.550Z,984.1
2022-12-03T13:56:53.109Z,984.1
2022-12-03T13:58:54.211Z,984.1
2022-12-03T14:00:55.352Z,984
2022-12-03T14:02:57.164Z,984
2022-12-03T14:05:00.550Z,984
2022-12-03T14:07:00.366Z,984
2022-12-03T14:09:02.377Z,984
2022-12-03T14:11:04.113Z,984
2022-12-03T14:13:05.514Z,984.1
2022-12-03T14:15:06.958Z,984
2022-12-03T14:17:08.947Z,984.1
2022-12-03T14:19:10.185Z,984
2022-12-03T14:21:12.209Z,984
2022-12-03T14:23:14.115Z,984.1
2022-12-03T14:25:15.984Z,984
2022-12-03T14:27:16.997Z,984.1
2022-12-03T14:29:18.869Z,984.2
2022-12-03T14:31:20.535Z,984.2
2022-12-03T14:33:21.788Z,984.2
2022-12-03T14:35:23.103Z,984.1
2022-12-03T14:37:24.119Z,984.3
2022-12-03T14:39:26.134Z,984.2
2022-12-03T14:41:27.347Z,984.2
2022-12-03T14:43:28.402Z,984.2
2022-12-03T14:45:29.895Z,984.2
2022-12-03T14:47:31.345Z,984.2
2022-12-03T14:49:33.173Z,984.3
2022-12-03T14:51:34.560Z,984.2
2022-12-03T14:53:35.991Z,984.2
2022-12-03T14:55:37.771Z,984.1
2022-12-03T14:58:22.682Z,984.2
2022-12-03T15:00:24.667Z,984.2
2022-12-03T15:02:26.368Z,984.2
2022-12-03T15:04:27.672Z,984.2
2022-12-03T15:06:28.990Z,984.2
2022-12-03T15:08:30.830Z,984.3
2022-12-03T15:10:31.989Z,984.2
2022-12-03T15:12:33.064Z,984.3
2022-12-03T15:14:34.319Z,984.2
2022-12-03T15:16:35.995Z,984.2
2022-12-03T15:18:37.959Z,984.3
2022-12-03T15:20:39.132Z,984.3
2022-12-03T15:22:40.151Z,984.3
2022-12-03T15:24:41.676Z,984.3
2022-12-03T15:26:42.954Z,984.3
2022-12-03T15:28:48.186Z,984.4
2022-12-03T15:30:46.227Z,984.4
2022-12-03T15:32:48.036Z,984.4
2022-12-03T15:34:49.401Z,984.4
2022-12-03T15:36:50.859Z,984.4
2022-12-03T15:38:52.035Z,984.4
2022-12-03T15:40:53.203Z,984.4
2022-12-03T15:42:54.436Z,984.5
2022-12-03T15:44:56.249Z,984.4
2022-12-03T15:46:57.823Z,984.4
2022-12-03T15:48:59.463Z,984.3
2022-12-03T15:51:00.892Z,984.3
2022-12-03T15:53:02.673Z,984.3
2022-12-03T15:55:04.147Z,984.3
2022-12-03T15:57:05.846Z,984.3
2022-12-03T15:59:07.565Z,984.2
2022-12-03T16:03:10.722Z,984.3
2022-12-03T16:05:12.198Z,984.3
2022-12-03T16:07:14.087Z,984.3
2022-12-03T16:09:15.443Z,984.2
2022-12-03T16:13:18.275Z,984.3
2022-12-03T16:15:25.214Z,984.2
2022-12-03T16:17:21.035Z,984.2
2022-12-03T16:19:22.660Z,984.3
2022-12-03T16:21:26.586Z,984.2
2022-12-03T16:23:25.421Z,984.3
2022-12-03T16:25:27.130Z,984.3
2022-12-03T16:27:28.583Z,984.2
2022-12-03T16:29:30.159Z,984.1
2022-12-03T16:31:31.995Z,984.1
2022-12-03T16:33:33.271Z,984.1
2022-12-03T16:35:34.743Z,984.2
2022-12-03T16:37:36.312Z,984.1
2022-12-03T16:39:38.170Z,984.1
2022-12-03T16:41:40.149Z,984
2022-12-03T16:43:41.740Z,984.1
2022-12-03T16:45:42.811Z,984
2022-12-03T16:47:44.533Z,984
2022-12-03T16:49:46.143Z,984
2022-12-03T16:51:47.930Z,983.9
2022-12-03T16:53:49.210Z,984
2022-12-03T16:55:50.438Z,984.1
2022-12-03T16:57:52.292Z,984
2022-12-03T17:01:54.977Z,983.9
2022-12-03T17:03:56.257Z,984
2022-12-03T17:05:57.407Z,984.1
2022-12-03T17:07:59.376Z,984.1
2022-12-03T17:10:00.568Z,984.1
2022-12-03T17:12:02.389Z,984.1
2022-12-03T17:14:03.997Z,984.1
2022-12-03T17:16:05.247Z,984.1
2022-12-03T17:18:06.453Z,984.1
2022-12-03T17:20:08.360Z,984.1
2022-12-03T17:22:10.296Z,984.2
2022-12-03T17:24:11.668Z,984.1
2022-12-03T17:26:13.748Z,984.1
2022-12-03T17:28:15.178Z,984.1
2022-12-03T17:30:16.967Z,984.1
2022-12-03T17:32:18.991Z,984.1
2022-12-03T17:34:20.225Z,984
2022-12-03T17:36:21.799Z,984
2022-12-03T17:38:23.624Z,984
2022-12-03T17:40:24.827Z,983.9
2022-12-03T17:44:28.240Z,984
2022-12-03T17:46:30.033Z,984
2022-12-03T17:48:31.547Z,984
2022-12-03T17:50:32.635Z,983.9
2022-12-03T17:52:34.032Z,983.9
2022-12-03T17:54:55.507Z,984
2022-12-03T17:56:37.346Z,984
2022-12-03T17:58:39.232Z,983.9
2022-12-03T18:00:40.745Z,983.9
2022-12-03T18:02:42.188Z,983.8
2022-12-03T18:04:43.962Z,983.8
2022-12-03T18:06:45.261Z,983.9
2022-12-03T18:08:46.891Z,983.8
2022-12-03T18:10:48.359Z,983.8
2022-12-03T18:12:49.861Z,983.8
2022-12-03T18:14:51.179Z,983.9
2022-12-03T18:16:52.699Z,983.8
2022-12-03T18:18:57.042Z,983.9
2022-12-03T18:20:55.618Z,983.8
2022-12-03T18:22:57.102Z,983.8
2022-12-03T18:24:59.019Z,983.8
2022-12-03T18:27:00.155Z,983.9
2022-12-03T18:29:01.622Z,983.9
2022-12-03T18:31:02.791Z,983.7
2022-12-03T18:33:04.258Z,983.8
2022-12-03T18:35:05.493Z,983.8
2022-12-03T18:37:07.365Z,983.9
2022-12-03T18:39:08.584Z,983.9
2022-12-03T18:43:11.878Z,983.8
2022-12-03T18:45:13.145Z,983.7
2022-12-03T18:47:14.764Z,983.8
2022-12-03T18:49:15.817Z,983.8
2022-12-03T18:51:17.522Z,983.9
2022-12-03T18:53:18.707Z,983.8
2022-12-03T18:57:22.320Z,983.8
2022-12-03T19:01:26.225Z,983.7
2022-12-03T19:03:27.664Z,983.8
2022-12-03T19:05:29.578Z,983.8
2022-12-03T19:07:30.897Z,983.8
2022-12-03T19:09:32.650Z,983.7
2022-12-03T19:11:34.418Z,983.6
2022-12-03T19:13:35.430Z,983.6
2022-12-03T19:15:37.104Z,983.7
2022-12-03T19:17:38.851Z,983.6
2022-12-03T19:19:39.943Z,983.7
2022-12-03T19:21:41.864Z,983.7
2022-12-03T19:25:44.405Z,983.6
2022-12-03T19:27:45.878Z,983.6
2022-12-03T19:29:47.707Z,983.4
2022-12-03T19:31:49.623Z,983.6
2022-12-03T19:33:50.702Z,983.5
2022-12-03T19:35:52.302Z,983.5
2022-12-03T19:37:54.257Z,983.5
2022-12-03T19:39:56.566Z,983.4
2022-12-03T19:41:58.177Z,983.5
2022-12-03T19:43:59.678Z,983.5
2022-12-03T19:46:01.184Z,983.6
2022-12-03T19:48:02.851Z,983.5
2022-12-03T19:50:04.532Z,983.6
2022-12-03T19:52:06.269Z,983.5
2022-12-03T19:54:07.895Z,983.5
2022-12-03T19:56:09.935Z,983.6
2022-12-03T19:58:11.009Z,983.6
2022-12-03T20:00:12.973Z,983.7
2022-12-03T20:02:14.815Z,983.8
2022-12-03T20:04:16.735Z,983.7
2022-12-03T20:08:20.175Z,983.7
2022-12-03T20:10:21.685Z,983.8
2022-12-03T20:12:23.055Z,983.8
2022-12-03T20:14:24.624Z,983.8
2022-12-03T20:16:26.155Z,983.8
2022-12-03T20:18:27.577Z,983.7
2022-12-03T20:20:28.831Z,983.7
2022-12-03T20:22:30.870Z,983.7
2022-12-03T20:24:32.770Z,983.7
2022-12-03T20:26:34.933Z,983.6
2022-12-03T20:28:36.317Z,983.6
2022-12-03T20:30:37.924Z,983.6
2022-12-03T20:32:43.672Z,983.5
2022-12-03T20:34:40.792Z,983.5
2022-12-03T20:36:42.338Z,983.5
2022-12-03T20:38:44.104Z,983.5
2022-12-03T20:40:45.477Z,983.5
2022-12-03T20:42:47.164Z,983.6
2022-12-03T20:44:48.510Z,983.6
2022-12-03T20:46:49.759Z,983.6
2022-12-03T20:50:52.644Z,983.6
2022-12-03T20:53:16.588Z,983.6
2022-12-03T20:54:55.659Z,983.5
2022-12-03T20:56:57.211Z,983.6
2022-12-03T20:58:58.796Z,983.5
2022-12-03T21:01:00.715Z,983.5
2022-12-03T21:03:01.701Z,983.5
2022-12-03T21:05:03.370Z,983.5
2022-12-03T21:07:05.158Z,983.5
2022-12-03T21:09:06.811Z,983.5
2022-12-03T21:11:08.058Z,983.4
2022-12-03T21:13:10.011Z,983.4
2022-12-03T21:15:11.259Z,983.4
2022-12-03T21:17:13.050Z,983.4
2022-12-03T21:19:14.067Z,983.4
2022-12-03T21:21:16.061Z,983.4
2022-12-03T21:23:17.690Z,983.3
2022-12-03T21:25:18.858Z,983.4
2022-12-03T21:27:21.931Z,983.4
2022-12-03T21:29:21.564Z,983.4
2022-12-03T21:31:23.096Z,983.4
2022-12-03T21:33:24.786Z,983.4
2022-12-03T21:35:26.641Z,983.4
2022-12-03T21:37:27.842Z,983.4
2022-12-03T21:39:28.961Z,983.3
2022-12-03T21:41:30.174Z,983.3
2022-12-03T21:43:31.336Z,983.2
2022-12-03T21:44:15.246Z,983.3
2022-12-03T21:47:09.120Z,983.3
2022-12-03T21:48:17.874Z,983.3
2022-12-03T21:50:19.166Z,983.3
2022-12-03T21:54:21.668Z,983.3
2022-12-03T21:56:23.578Z,983.2
2022-12-03T21:58:24.991Z,983.3
2022-12-03T22:00:26.760Z,983.2
2022-12-03T22:04:29.852Z,983.2
2022-12-03T22:06:31.384Z,983.2
2022-12-03T22:08:32.773Z,983.1
2022-12-03T22:10:33.948Z,983.1
2022-12-03T22:12:35.142Z,983
2022-12-03T22:14:36.732Z,983
2022-12-03T22:16:37.886Z,983.2
2022-12-03T22:18:39.816Z,983.1
2022-12-03T22:20:41.667Z,983
2022-12-03T22:22:43.058Z,983.1
2022-12-03T22:24:44.780Z,983.1
2022-12-03T22:26:45.933Z,983.1
2022-12-03T22:28:47.195Z,983.1
2022-12-03T22:30:48.706Z,983
2022-12-03T22:32:50.070Z,983
2022-12-03T22:34:51.946Z,983
2022-12-03T22:36:53.572Z,982.9
2022-12-03T22:38:54.647Z,983
2022-12-03T22:40:56.251Z,983
2022-12-03T22:42:57.471Z,982.9
2022-12-03T22:44:58.757Z,983
2022-12-03T22:47:00.084Z,983
2022-12-03T22:49:06.643Z,983
2022-12-03T22:53:04.841Z,983
2022-12-03T22:55:06.493Z,983
2022-12-03T22:57:08.001Z,983
2022-12-03T22:59:09.890Z,982.9
2022-12-03T23:01:11.033Z,983
2022-12-03T23:03:12.906Z,982.9
2022-12-03T23:05:14.367Z,982.9
2022-12-03T23:07:16.120Z,982.8
2022-12-03T23:09:17.431Z,982.9
2022-12-03T23:11:18.781Z,982.9
2022-12-03T23:13:20.630Z,982.8
2022-12-03T23:15:21.817Z,982.8
2022-12-03T23:17:23.845Z,982.8
2022-12-03T23:19:25.216Z,982.8
2022-12-03T23:21:29.685Z,982.7
2022-12-03T23:23:28.771Z,982.7
2022-12-03T23:25:29.876Z,982.8
2022-12-03T23:27:31.932Z,982.7
2022-12-03T23:29:33.457Z,982.6
2022-12-03T23:31:35.041Z,982.8
2022-12-03T23:33:38.475Z,982.8
2022-12-03T23:35:37.636Z,982.8
2022-12-03T23:37:39.554Z,982.7
2022-12-03T23:39:41.397Z,982.6
2022-12-03T23:41:43.212Z,982.6
2022-12-03T23:43:44.696Z,982.6
2022-12-03T23:45:46.098Z,982.8
2022-12-03T23:47:47.177Z,982.6
2022-12-03T23:51:51.024Z,982.7
2022-12-03T23:53:52.154Z,982.7
2022-12-03T23:55:53.222Z,982.6
2022-12-03T23:57:54.331Z,982.6
2022-12-03T23:59:56.769Z,982.7
